Terminal Aerodrome Forecast
Issued by NWS

Home | Current Version | Previous Version | Text Only | Print | Product List | Glossary On
Versions: 1 2 3 4 5 6 7 8 9 10 11 12 13 14 15 16 17 18 19 20 21 22 23 24 25 26 27 28 29 30 31 32 33 34 35 36 37 38 39 40
572
FTUS43 KMKX 312343
TAFUES
TAF
KUES 312343Z 0100/0124 16006KT P6SM BKN090
     FM010300 00000KT P6SM VCTS SCT060CB BKN100
     FM010700 VRB03KT P6SM -SHRA BKN070
      TEMPO 0107/0109 4SM -TSRA OVC040CB
     FM010900 VRB03KT 5SM -SHRA VCTS OVC070CB
     FM011600 19004KT 6SM -SHRA VCTS OVC050CB
     FM012000 23007KT P6SM BKN200=

USA.gov is the U.S. government's official web portal to all federal, state and local government web resources and services.